Time;durP1;ratioP1;P1;durP2;ratioP2;P2;SDS_P1;SDS_P2;PMS_P1;PMS_P2;Temp;Humidity;BMP_temperature;BMP_pressure;BME280_temperature;BME280_humidity;BME280_pressure;Samples;Min_cycle;Max_cycle;Signal;HPM_P1;HPM_P2
2023/12/06 00:01:16;;;;;;;;;1.75;1.75;;;;;-146.25;100.00;57879.81;5119144;27;45417;-73
2023/12/06 00:03:42;;;;;;;;;1.00;1.00;;;;;-146.25;100.00;57879.81;5119109;27;45412;-74
2023/12/06 00:06:08;;;;;;;;;2.50;1.50;;;;;-146.25;100.00;57879.81;5118778;27;45550;-73
2023/12/06 00:08:34;;;;;;;;;2.00;2.00;;;;;-146.25;100.00;57879.81;5118954;27;45546;-74
2023/12/06 00:11:00;;;;;;;;;1.50;1.00;;;;;-146.25;100.00;57879.81;5119029;27;45317;-74
2023/12/06 00:13:25;;;;;;;;;0.00;0.00;;;;;-146.25;100.00;57879.81;5119005;27;45517;-73
2023/12/06 00:15:51;;;;;;;;;1.00;1.00;;;;;-146.25;100.00;57879.81;5100082;27;46328;-74
2023/12/06 00:18:17;;;;;;;;;1.00;1.00;;;;;-146.25;100.00;57879.81;5118893;27;45385;-73
2023/12/06 00:20:43;;;;;;;;;3.00;3.00;;;;;-146.25;100.00;57879.81;5118493;27;45268;-73
2023/12/06 00:23:08;;;;;;;;;2.75;2.00;;;;;-146.25;100.00;57879.81;5118720;27;46072;-73
2023/12/06 00:25:34;;;;;;;;;1.00;1.00;;;;;-146.25;100.00;57879.81;5118388;27;45563;-73
2023/12/06 00:28:01;;;;;;;;;1.00;1.00;;;;;-146.25;100.00;57879.81;5118434;27;45433;-74
2023/12/06 00:30:26;;;;;;;;;1.00;0.75;;;;;-146.25;100.00;57879.81;5118557;27;45555;-74
2023/12/06 00:32:52;;;;;;;;;1.00;1.00;;;;;-146.25;100.00;57879.81;5118598;27;45616;-74
2023/12/06 00:35:18;;;;;;;;;1.00;1.00;;;;;-146.25;100.00;57879.81;5118549;27;46030;-73
2023/12/06 00:37:43;;;;;;;;;1.00;1.00;;;;;-146.25;100.00;57879.81;5118448;27;45389;-73
2023/12/06 00:40:09;;;;;;;;;0.00;0.00;;;;;-146.25;100.00;57879.81;5117936;27;45497;-74
2023/12/06 00:42:35;;;;;;;;;1.50;1.00;;;;;-146.25;100.00;57879.81;5117878;27;45321;-73
2023/12/06 00:45:00;;;;;;;;;3.25;3.00;;;;;-146.25;100.00;57879.81;5117277;27;45481;-75
2023/12/06 00:47:26;;;;;;;;;1.00;1.00;;;;;-146.25;100.00;57879.81;5117800;27;45532;-73
2023/12/06 00:49:52;;;;;;;;;1.75;1.00;;;;;-146.25;100.00;57879.81;5117995;27;45554;-74
2023/12/06 00:52:18;;;;;;;;;0.00;0.00;;;;;-146.25;100.00;57879.81;5118546;27;45494;-73
2023/12/06 00:54:47;;;;;;;;;1.00;0.50;;;;;-146.25;100.00;57879.81;5118098;27;45340;-74
2023/12/06 00:57:13;;;;;;;;;1.50;1.00;;;;;-146.25;100.00;57879.81;5100228;27;45388;-74
2023/12/06 00:59:39;;;;;;;;;1.00;1.00;;;;;-146.25;100.00;57879.81;5097019;27;45274;-74
2023/12/06 01:02:05;;;;;;;;;2.00;1.00;;;;;-146.25;100.00;57879.81;5097754;27;45569;-73
2023/12/06 01:04:30;;;;;;;;;1.25;1.00;;;;;-146.25;100.00;57879.81;5097168;27;45964;-73
2023/12/06 01:06:56;;;;;;;;;0.25;0.00;;;;;-146.25;100.00;57879.81;5097239;27;45356;-73
2023/12/06 01:09:21;;;;;;;;;1.00;1.00;;;;;-146.25;100.00;57879.81;5098089;27;45549;-73
2023/12/06 01:11:47;;;;;;;;;0.00;0.00;;;;;-146.25;100.00;57879.81;5097698;27;45317;-73
2023/12/06 01:14:12;;;;;;;;;0.00;0.00;;;;;-146.25;100.00;57879.81;5097151;27;45986;-73
2023/12/06 01:16:38;;;;;;;;;0.00;0.00;;;;;-146.25;100.00;57879.81;5097444;27;45390;-73
2023/12/06 01:19:04;;;;;;;;;1.00;0.00;;;;;-146.25;100.00;57879.81;5097725;27;45560;-73
2023/12/06 01:21:29;;;;;;;;;0.00;0.00;;;;;-146.25;100.00;57879.81;5097751;27;45362;-74
2023/12/06 01:23:55;;;;;;;;;0.00;0.00;;;;;-146.25;100.00;57879.81;5097220;27;45877;-74
2023/12/06 01:26:20;;;;;;;;;0.00;0.00;;;;;-146.25;100.00;57879.81;5097268;27;45581;-73
2023/12/06 01:28:46;;;;;;;;;2.00;0.00;;;;;-146.25;100.00;57879.81;5097252;27;45825;-73
2023/12/06 01:31:11;;;;;;;;;0.00;0.00;;;;;-146.25;100.00;57879.81;5097538;27;45256;-74
2023/12/06 01:33:38;;;;;;;;;0.33;0.00;;;;;-146.25;100.00;57879.81;5098951;27;46015;-74
2023/12/06 01:36:03;;;;;;;;;1.00;1.00;;;;;-146.25;100.00;57879.81;5100698;27;45679;-74
2023/12/06 01:38:29;;;;;;;;;0.00;0.00;;;;;-146.25;100.00;57879.81;5100708;27;46170;-74
2023/12/06 01:40:55;;;;;;;;;0.00;0.00;;;;;-146.25;100.00;57879.81;5101026;27;45756;-74
2023/12/06 01:43:20;;;;;;;;;1.00;0.00;;;;;-146.25;100.00;57879.81;5100629;27;45959;-74
2023/12/06 01:45:46;;;;;;;;;1.00;1.00;;;;;-146.25;100.00;57879.81;5100506;27;45620;-74
2023/12/06 01:48:12;;;;;;;;;0.00;0.00;;;;;-146.25;100.00;57879.81;5100695;27;45337;-74
2023/12/06 01:50:40;;;;;;;;;1.00;0.00;;;;;-146.25;100.00;57879.81;5100714;27;45465;-74
2023/12/06 01:53:06;;;;;;;;;2.00;1.00;;;;;-146.25;100.00;57879.81;5100461;27;46093;-73
2023/12/06 01:55:32;;;;;;;;;1.00;1.00;;;;;-146.25;100.00;57879.81;5100329;27;45384;-74
2023/12/06 01:57:59;;;;;;;;;0.00;0.00;;;;;-146.25;100.00;57879.81;5100570;27;45285;-73
2023/12/06 02:00:25;;;;;;;;;1.00;1.00;;;;;-146.25;100.00;57879.81;5100907;27;45516;-74
2023/12/06 02:02:52;;;;;;;;;0.00;0.00;;;;;-146.25;100.00;57879.81;5100314;27;46706;-74
2023/12/06 02:05:19;;;;;;;;;0.00;0.00;;;;;-146.25;100.00;57879.81;5100291;27;45280;-73
2023/12/06 02:07:45;;;;;;;;;0.00;0.00;;;;;-146.25;100.00;57879.81;5082051;27;45391;-74
2023/12/06 02:10:11;;;;;;;;;0.00;0.00;;;;;-146.25;100.00;57879.81;5100187;27;45402;-73
2023/12/06 02:12:36;;;;;;;;;0.00;0.00;;;;;-146.25;100.00;57879.81;5099790;27;46056;-73
2023/12/06 02:15:03;;;;;;;;;0.00;0.00;;;;;-146.25;100.00;57879.81;5100007;27;45430;-73
2023/12/06 02:17:30;;;;;;;;;0.00;0.00;;;;;-146.25;100.00;57879.81;5100079;27;45516;-74
2023/12/06 02:19:57;;;;;;;;;0.00;0.00;;;;;-146.25;100.00;57879.81;5100539;27;45172;-74
2023/12/06 02:22:24;;;;;;;;;0.33;0.00;;;;;-146.25;100.00;57879.81;5100037;27;46191;-73
2023/12/06 02:24:56;;;;;;;;;0.00;0.00;;;;;-146.25;100.00;57879.81;5099755;27;45366;-75
2023/12/06 02:27:22;;;;;;;;;0.00;0.00;;;;;-146.25;100.00;57879.81;5100003;27;45265;-75
2023/12/06 02:29:47;;;;;;;;;0.00;0.00;;;;;-146.25;100.00;57879.81;5100155;27;45507;-75
2023/12/06 02:32:13;;;;;;;;;1.00;0.00;;;;;-146.25;100.00;57879.81;5099712;27;46002;-74
2023/12/06 02:34:40;;;;;;;;;0.00;0.00;;;;;-146.25;100.00;57879.81;5081476;27;45475;-73
2023/12/06 02:37:08;;;;;;;;;0.00;0.00;;;;;-146.25;100.00;57879.81;5100037;27;45342;-74
2023/12/06 02:39:42;;;;;;;;;1.00;0.00;;;;;-146.25;100.00;57879.81;5100208;27;45301;-74
2023/12/06 02:42:09;;;;;;;;;0.00;0.00;;;;;-146.25;100.00;57879.81;5099750;27;46668;-74
2023/12/06 02:44:35;;;;;;;;;1.00;0.00;;;;;-146.25;100.00;57879.81;5099692;27;45453;-74
2023/12/06 02:47:01;;;;;;;;;2.00;0.00;;;;;-146.25;100.00;57879.81;5100164;27;45455;-74
2023/12/06 02:49:27;;;;;;;;;1.00;0.00;;;;;-146.25;100.00;57879.81;5100457;27;45294;-74
2023/12/06 02:51:53;;;;;;;;;0.33;0.00;;;;;-146.25;100.00;57879.81;5099268;27;45430;-73
2023/12/06 02:54:18;;;;;;;;;0.00;0.00;;;;;-146.25;100.00;57879.81;5099728;27;45371;-74
2023/12/06 02:56:44;;;;;;;;;0.00;0.00;;;;;-146.25;100.00;57879.81;5100077;27;45263;-74
2023/12/06 02:59:09;;;;;;;;;0.00;0.00;;;;;-146.25;100.00;57879.81;5100096;27;45378;-74
2023/12/06 03:01:35;;;;;;;;;0.00;0.00;;;;;-146.25;100.00;57879.81;5099674;27;46122;-74
2023/12/06 03:04:00;;;;;;;;;0.50;0.00;;;;;-146.25;100.00;57879.81;5099454;27;45458;-74
2023/12/06 03:06:26;;;;;;;;;1.75;1.25;;;;;-146.25;100.00;57879.81;5099979;27;45295;-74
2023/12/06 03:08:51;;;;;;;;;0.00;0.00;;;;;-146.25;100.00;57879.81;5099671;27;45424;-74
2023/12/06 03:11:17;;;;;;;;;0.00;0.00;;;;;-146.25;100.00;57879.81;5081065;27;46516;-74
2023/12/06 03:13:43;;;;;;;;;1.00;0.50;;;;;-146.25;100.00;57879.81;5099120;27;45437;-73
2023/12/06 03:16:08;;;;;;;;;0.00;0.00;;;;;-146.25;100.00;57879.81;5099326;27;45397;-74
2023/12/06 03:18:34;;;;;;;;;0.00;0.00;;;;;-146.25;100.00;57879.81;5099896;27;45382;-73
2023/12/06 03:21:00;;;;;;;;;0.75;0.75;;;;;-146.25;100.00;57879.81;5099507;27;46130;-73
2023/12/06 03:23:26;;;;;;;;;1.25;1.25;;;;;-146.25;100.00;57879.81;5099290;27;45472;-74
2023/12/06 03:25:51;;;;;;;;;0.00;0.00;;;;;-146.25;100.00;57879.81;5099271;27;45507;-74
2023/12/06 03:28:17;;;;;;;;;0.67;0.00;;;;;-146.25;100.00;57879.81;5099475;27;45160;-74
2023/12/06 03:30:43;;;;;;;;;0.00;0.00;;;;;-146.25;100.00;57879.81;5099052;27;46017;-74
2023/12/06 03:33:09;;;;;;;;;1.00;0.00;;;;;-146.25;100.00;57879.81;5098974;27;45442;-74
2023/12/06 03:35:34;;;;;;;;;1.00;1.00;;;;;-146.25;100.00;57879.81;5099167;27;45547;-74
2023/12/06 03:38:00;;;;;;;;;0.33;0.33;;;;;-146.25;100.00;57879.81;5099806;27;45314;-74
2023/12/06 03:40:25;;;;;;;;;0.00;0.00;;;;;-146.25;100.00;57879.81;5099098;27;46080;-74
2023/12/06 03:42:51;;;;;;;;;0.00;0.00;;;;;-146.25;100.00;57879.81;5099001;27;45440;-74
2023/12/06 03:45:17;;;;;;;;;0.00;0.00;;;;;-146.25;100.00;57879.81;5099077;27;45445;-74
2023/12/06 03:47:43;;;;;;;;;0.75;0.75;;;;;-146.25;100.00;57879.81;5099055;27;45397;-73
2023/12/06 03:50:09;;;;;;;;;0.00;0.00;;;;;-146.25;100.00;57879.81;5098637;27;46301;-73
2023/12/06 03:52:34;;;;;;;;;0.50;0.25;;;;;-146.25;100.00;57879.81;5098537;27;45339;-74
2023/12/06 03:55:00;;;;;;;;;0.00;0.00;;;;;-146.25;100.00;57879.81;5098957;27;45303;-74
2023/12/06 03:57:26;;;;;;;;;0.00;0.00;;;;;-146.25;100.00;57879.81;5098466;27;45409;-74
2023/12/06 03:59:51;;;;;;;;;0.00;0.00;;;;;-146.25;100.00;57879.81;5098421;27;45229;-74
2023/12/06 04:02:18;;;;;;;;;0.00;0.00;;;;;-146.25;100.00;57879.81;5098445;27;45410;-74
2023/12/06 04:04:44;;;;;;;;;0.00;0.00;;;;;-146.25;100.00;57879.81;5098942;27;45284;-74
2023/12/06 04:07:10;;;;;;;;;0.00;0.00;;;;;-146.25;100.00;57879.81;5098721;27;45472;-73
2023/12/06 04:09:36;;;;;;;;;0.00;0.00;;;;;-146.25;100.00;57879.81;5098522;27;46141;-74
2023/12/06 04:12:02;;;;;;;;;0.00;0.00;;;;;-146.25;100.00;57879.81;5098899;27;45703;-74
2023/12/06 04:14:28;;;;;;;;;1.00;0.00;;;;;-146.25;100.00;57879.81;5098622;27;45339;-74
2023/12/06 04:16:53;;;;;;;;;0.00;0.00;;;;;-146.25;100.00;57879.81;5098777;27;45482;-74
2023/12/06 04:19:19;;;;;;;;;0.50;0.00;;;;;-146.25;100.00;57879.81;5098353;27;45713;-73
2023/12/06 04:21:45;;;;;;;;;0.00;0.00;;;;;-146.25;100.00;57879.81;5098387;27;45430;-74
2023/12/06 04:24:10;;;;;;;;;0.00;0.00;;;;;-146.25;100.00;57879.81;5098263;27;45490;-74
2023/12/06 04:26:36;;;;;;;;;0.00;0.00;;;;;-146.25;100.00;57879.81;5098686;27;45222;-74
2023/12/06 04:29:01;;;;;;;;;1.00;0.00;;;;;-146.25;100.00;57879.81;5098545;27;45990;-74
2023/12/06 04:31:27;;;;;;;;;0.00;0.00;;;;;-146.25;100.00;57879.81;5098376;27;45481;-74
2023/12/06 04:33:52;;;;;;;;;1.00;0.00;;;;;-146.25;100.00;57879.81;5098013;27;45193;-74
2023/12/06 04:36:18;;;;;;;;;0.33;0.00;;;;;-146.25;100.00;57879.81;5098625;27;45516;-74
2023/12/06 04:38:44;;;;;;;;;1.25;0.00;;;;;-146.25;100.00;57879.81;5098070;27;45968;-74
2023/12/06 04:41:10;;;;;;;;;0.00;0.00;;;;;-146.25;100.00;57879.81;5098088;27;45566;-74
2023/12/06 04:43:36;;;;;;;;;0.00;0.00;;;;;-146.25;100.00;57879.81;5098067;27;45532;-74
2023/12/06 04:46:01;;;;;;;;;0.00;0.00;;;;;-146.25;100.00;57879.81;5098668;27;45264;-74
2023/12/06 04:48:27;;;;;;;;;0.00;0.00;;;;;-146.25;100.00;57879.81;5097970;27;46014;-74
2023/12/06 04:50:53;;;;;;;;;0.00;0.00;;;;;-146.25;100.00;57879.81;5097793;27;45497;-74
2023/12/06 04:53:18;;;;;;;;;0.00;0.00;;;;;-146.25;100.00;57879.81;5098195;27;45430;-74
2023/12/06 04:55:44;;;;;;;;;0.00;0.00;;;;;-146.25;100.00;57879.81;5098273;27;45449;-74
2023/12/06 04:58:09;;;;;;;;;9.25;5.00;;;;;-146.25;100.00;57879.81;5097808;27;46110;-74
2023/12/06 05:00:36;;;;;;;;;2.25;2.00;;;;;-146.25;100.00;57879.81;5098040;27;45504;-73
2023/12/06 05:03:02;;;;;;;;;4.75;4.00;;;;;-146.25;100.00;57879.81;5098237;27;45940;-73
2023/12/06 05:05:28;;;;;;;;;8.25;8.25;;;;;-146.25;100.00;57879.81;5098001;27;45395;-74
2023/12/06 05:07:55;;;;;;;;;7.75;7.00;;;;;-146.25;100.00;57879.81;5098429;27;46211;-74
2023/12/06 05:10:21;;;;;;;;;2.50;2.50;;;;;-146.25;100.00;57879.81;5101393;27;45425;-74
2023/12/06 05:12:47;;;;;;;;;3.75;2.00;;;;;-146.25;100.00;57879.81;5101140;27;45396;-74
2023/12/06 05:15:13;;;;;;;;;3.50;2.75;;;;;-146.25;100.00;57879.81;5101445;27;45318;-74
2023/12/06 05:17:39;;;;;;;;;1.00;1.00;;;;;-146.25;100.00;57879.81;5101255;27;45372;-74
2023/12/06 05:20:06;;;;;;;;;1.75;1.50;;;;;-146.25;100.00;57879.81;5101577;27;45325;-74
2023/12/06 05:22:32;;;;;;;;;2.25;1.00;;;;;-146.25;100.00;57879.81;5101486;27;45271;-74
2023/12/06 05:24:57;;;;;;;;;2.00;2.00;;;;;-146.25;100.00;57879.81;5101508;27;45410;-74
2023/12/06 05:27:23;;;;;;;;;2.00;2.00;;;;;-146.25;100.00;57879.81;5101116;27;45422;-74
2023/12/06 05:29:48;;;;;;;;;2.00;2.00;;;;;-146.25;100.00;57879.81;5101019;27;45556;-74
2023/12/06 05:32:14;;;;;;;;;0.00;0.00;;;;;-146.25;100.00;57879.81;5082794;27;45539;-73
2023/12/06 05:34:40;;;;;;;;;1.00;0.75;;;;;-146.25;100.00;57879.81;5100701;27;45359;-74
2023/12/06 05:37:05;;;;;;;;;0.50;0.50;;;;;-146.25;100.00;57879.81;5101169;27;46148;-74
2023/12/06 05:39:31;;;;;;;;;0.00;0.00;;;;;-146.25;100.00;57879.81;5100677;27;45404;-73
2023/12/06 05:41:57;;;;;;;;;0.75;0.75;;;;;-146.25;100.00;57879.81;5101099;27;45381;-74
2023/12/06 05:44:22;;;;;;;;;0.00;0.00;;;;;-146.25;100.00;57879.81;5101220;27;45404;-73
2023/12/06 05:46:48;;;;;;;;;0.00;0.00;;;;;-146.25;100.00;57879.81;5100712;27;45556;-74
2023/12/06 05:49:14;;;;;;;;;0.00;0.00;;;;;-146.25;100.00;57879.81;5100976;27;45441;-74
2023/12/06 05:51:39;;;;;;;;;0.00;0.00;;;;;-146.25;100.00;57879.81;5082597;27;45482;-74
2023/12/06 05:54:05;;;;;;;;;0.00;0.00;;;;;-146.25;100.00;57879.81;5082493;27;45538;-74
2023/12/06 05:56:30;;;;;;;;;0.00;0.00;;;;;-146.25;100.00;57879.81;5100228;27;45815;-74
2023/12/06 05:58:56;;;;;;;;;1.50;0.00;;;;;-146.25;100.00;57879.81;5100502;27;45504;-74
2023/12/06 06:01:22;;;;;;;;;0.00;0.00;;;;;-146.25;100.00;57879.81;5106214;27;46194;-81
2023/12/06 06:03:48;;;;;;;;;25.50;20.00;;;;;-146.25;100.00;57879.81;5110833;27;45448;-74
2023/12/06 06:06:14;;;;;;;;;9.25;8.75;;;;;-146.25;100.00;57879.81;5091623;27;45554;-73
2023/12/06 06:08:40;;;;;;;;;0.00;0.00;;;;;-146.25;100.00;57879.81;5109299;27;45670;-78
2023/12/06 06:11:05;;;;;;;;;0.75;0.75;;;;;-146.25;100.00;57879.81;5111528;27;45778;-82
2023/12/06 06:13:32;;;;;;;;;0.75;0.75;;;;;-146.25;100.00;57879.81;5109999;27;45460;-80
2023/12/06 06:15:58;;;;;;;;;1.00;1.00;;;;;-146.25;100.00;57879.81;5109100;27;45396;-80
2023/12/06 06:18:24;;;;;;;;;0.00;0.00;;;;;-146.25;100.00;57879.81;5110116;27;45468;-80
2023/12/06 06:20:50;;;;;;;;;1.75;1.75;;;;;-146.25;100.00;57879.81;5093672;27;45406;-81
2023/12/06 06:23:15;;;;;;;;;21.50;19.50;;;;;-146.25;100.00;57879.81;5109513;27;45209;-81
2023/12/06 06:25:41;;;;;;;;;56.25;42.75;;;;;-146.25;100.00;57879.81;5110569;27;46046;-75
2023/12/06 06:28:07;;;;;;;;;10.50;8.75;;;;;-146.25;100.00;57879.81;5109427;27;45348;-77
2023/12/06 06:30:32;;;;;;;;;1.00;1.00;;;;;-146.25;100.00;57879.81;5109679;27;45215;-81
2023/12/06 06:32:58;;;;;;;;;1.75;0.75;;;;;-146.25;100.00;57879.81;5110621;27;45469;-81
2023/12/06 06:35:24;;;;;;;;;13.50;9.25;;;;;-146.25;100.00;57879.81;5108285;27;45158;-80
2023/12/06 06:37:50;;;;;;;;;1.50;1.00;;;;;-146.25;100.00;57879.81;5109726;27;46848;-81
2023/12/06 06:40:15;;;;;;;;;1.00;1.00;;;;;-146.25;100.00;57879.81;5091402;27;45652;-81
2023/12/06 06:42:42;;;;;;;;;6.75;6.00;;;;;-146.25;100.00;57879.81;5108943;27;45434;-80
2023/12/06 06:45:09;;;;;;;;;6.00;4.00;;;;;-146.25;100.00;57879.81;5110163;27;45430;-80
2023/12/06 06:47:36;;;;;;;;;6.00;4.00;;;;;-146.25;100.00;57879.81;5109726;27;45350;-81
2023/12/06 06:50:06;;;;;;;;;4.50;4.00;;;;;-146.25;100.00;57879.81;5108413;27;45458;-80
2023/12/06 06:52:34;;;;;;;;;3.75;3.50;;;;;-146.25;100.00;57879.81;5109329;27;45306;-79
2023/12/06 06:55:01;;;;;;;;;3.50;3.00;;;;;-146.25;100.00;57879.81;5110082;27;46050;-79
2023/12/06 06:57:26;;;;;;;;;2.25;2.00;;;;;-146.25;100.00;57879.81;5108093;27;45461;-74
2023/12/06 06:59:52;;;;;;;;;1.00;1.00;;;;;-146.25;100.00;57879.81;5109132;27;45378;-81
2023/12/06 07:02:18;;;;;;;;;0.50;0.00;;;;;-146.25;100.00;57879.81;5110095;27;45452;-80
2023/12/06 07:04:44;;;;;;;;;1.00;1.00;;;;;-146.25;100.00;57879.81;5107636;27;45978;-74
2023/12/06 07:07:10;;;;;;;;;1.25;1.00;;;;;-146.25;100.00;57879.81;5109814;27;45271;-80
2023/12/06 07:09:36;;;;;;;;;0.50;0.50;;;;;-146.25;100.00;57879.81;5109654;27;45455;-74
2023/12/06 07:12:03;;;;;;;;;0.00;0.00;;;;;-146.25;100.00;57879.81;5108212;27;45540;-74
2023/12/06 07:14:29;;;;;;;;;0.50;0.50;;;;;-146.25;100.00;57879.81;5109261;27;46298;-74
2023/12/06 07:16:55;;;;;;;;;3.00;3.00;;;;;-146.25;100.00;57879.81;5109214;27;45421;-76
2023/12/06 07:19:21;;;;;;;;;15.50;15.50;;;;;-146.25;100.00;57879.81;5089298;27;45267;-78
2023/12/06 07:21:48;;;;;;;;;7.75;7.00;;;;;-146.25;100.00;57879.81;5110995;27;45284;-76
2023/12/06 07:24:13;;;;;;;;;2.00;1.50;;;;;-146.25;100.00;57879.81;5110482;27;45603;-75
2023/12/06 07:26:39;;;;;;;;;0.50;0.50;;;;;-146.25;100.00;57879.81;5108020;27;45299;-75
2023/12/06 07:29:05;;;;;;;;;1.25;1.25;;;;;-146.25;100.00;57879.81;5109128;27;45388;-79
2023/12/06 07:31:31;;;;;;;;;95.50;70.25;;;;;-146.25;100.00;57879.81;5108199;27;45529;-74
2023/12/06 07:33:57;;;;;;;;;34.25;31.00;;;;;-146.25;100.00;57879.81;5107163;27;45951;-80
2023/12/06 07:36:23;;;;;;;;;33.00;27.75;;;;;-146.25;100.00;57879.81;5108761;27;45480;-74
2023/12/06 07:38:49;;;;;;;;;32.75;28.75;;;;;-146.25;100.00;57879.81;5101515;27;45271;-75
2023/12/06 07:41:15;;;;;;;;;32.50;26.50;;;;;-146.25;100.00;57879.81;5099680;27;45362;-74
2023/12/06 07:43:41;;;;;;;;;6.25;4.00;;;;;-146.25;100.00;57879.81;5119433;27;46156;-76
2023/12/06 07:46:06;;;;;;;;;1.00;1.00;;;;;-146.25;100.00;57879.81;5119219;27;45263;-81
2023/12/06 07:48:35;;;;;;;;;2.25;2.00;;;;;-146.25;100.00;57879.81;5119595;27;45222;-73
2023/12/06 07:51:01;;;;;;;;;17.25;17.25;;;;;-146.25;100.00;57879.81;5111139;27;45397;-73
2023/12/06 07:53:27;;;;;;;;;17.00;14.75;;;;;-146.25;100.00;57879.81;5107509;27;46511;-73
2023/12/06 07:55:55;;;;;;;;;17.75;15.25;;;;;-146.25;100.00;57879.81;5107799;27;45543;-73
2023/12/06 07:58:21;;;;;;;;;26.75;26.75;;;;;-146.25;100.00;57879.81;5108972;27;45461;-74
2023/12/06 08:00:48;;;;;;;;;13.50;13.25;;;;;-146.25;100.00;57879.81;5109968;27;45471;-72
2023/12/06 08:03:14;;;;;;;;;3.25;2.25;;;;;-146.25;100.00;57879.81;5108334;27;45151;-82
2023/12/06 08:05:40;;;;;;;;;3.50;3.00;;;;;-146.25;100.00;57879.81;5109150;27;45375;-82
2023/12/06 08:08:06;;;;;;;;;2.00;1.00;;;;;-146.25;100.00;57879.81;5107328;27;45360;-73
2023/12/06 08:10:33;;;;;;;;;3.50;2.00;;;;;-146.25;100.00;57879.81;5112358;27;45512;-73
2023/12/06 08:12:59;;;;;;;;;2.00;2.00;;;;;-146.25;100.00;57879.81;5118495;27;45276;-73
2023/12/06 08:15:26;;;;;;;;;5.75;5.25;;;;;-146.25;100.00;57879.81;5118759;27;45305;-73
2023/12/06 08:17:52;;;;;;;;;8.00;7.00;;;;;-146.25;100.00;57879.81;5118757;27;45422;-73
2023/12/06 08:20:17;;;;;;;;;7.00;4.00;;;;;-146.25;100.00;57879.81;5119120;27;45402;-74
2023/12/06 08:22:43;;;;;;;;;27.75;22.75;;;;;-146.25;100.00;57879.81;5119158;27;46083;-73
2023/12/06 08:25:11;;;;;;;;;14.25;12.75;;;;;-146.25;100.00;57879.81;5118832;27;45724;-73
2023/12/06 08:27:37;;;;;;;;;16.00;14.25;;;;;-146.25;100.00;57879.81;5119075;27;45390;-82
2023/12/06 08:30:03;;;;;;;;;14.75;11.75;;;;;-146.25;100.00;57879.81;5118853;27;45535;-73
2023/12/06 08:32:29;;;;;;;;;3.00;3.00;;;;;-146.25;100.00;57879.81;5118617;27;47680;-74
2023/12/06 08:34:55;;;;;;;;;4.00;3.00;;;;;-146.25;100.00;57879.81;5118702;27;45285;-73
2023/12/06 08:37:21;;;;;;;;;2.25;2.25;;;;;-146.25;100.00;57879.81;5118723;27;45238;-73
2023/12/06 08:39:47;;;;;;;;;2.00;1.00;;;;;-146.25;100.00;57879.81;5118534;27;45540;-82
2023/12/06 08:42:14;;;;;;;;;1.00;1.00;;;;;-146.25;100.00;57879.81;5116996;27;46259;-77
2023/12/06 08:44:41;;;;;;;;;4.50;4.00;;;;;-146.25;100.00;57879.81;5118614;27;45406;-74
2023/12/06 08:47:08;;;;;;;;;3.75;3.50;;;;;-146.25;100.00;57879.81;5098951;27;46566;-79
2023/12/06 08:49:37;;;;;;;;;9.75;8.75;;;;;-146.25;100.00;57879.81;5118018;27;45491;-81
2023/12/06 08:52:03;;;;;;;;;3.75;3.25;;;;;-146.25;100.00;57879.81;5117510;27;45449;-73
2023/12/06 08:54:29;;;;;;;;;8.00;7.00;;;;;-146.25;100.00;57879.81;5116231;27;45315;-74
2023/12/06 08:56:54;;;;;;;;;12.50;11.50;;;;;-146.25;100.00;57879.81;5098630;27;45354;-73
2023/12/06 08:59:20;;;;;;;;;7.25;6.25;;;;;-146.25;100.00;57879.81;5118443;27;45342;-73
2023/12/06 09:01:46;;;;;;;;;4.00;4.00;;;;;-146.25;100.00;57879.81;5108262;27;45328;-82
2023/12/06 09:04:11;;;;;;;;;1.00;0.50;;;;;-146.25;100.00;57879.81;5097496;27;45355;-75
2023/12/06 09:06:37;;;;;;;;;4.25;3.50;;;;;-146.25;100.00;57879.81;5097560;27;45418;-74
2023/12/06 09:09:04;;;;;;;;;20.50;19.50;;;;;-146.25;100.00;57879.81;5097257;27;45260;-73
2023/12/06 09:11:30;;;;;;;;;3.00;3.00;;;;;-146.25;100.00;57879.81;5097312;27;45930;-73
2023/12/06 09:13:56;;;;;;;;;3.50;2.00;;;;;-146.25;100.00;57879.81;5079021;27;45340;-73
2023/12/06 09:16:21;;;;;;;;;4.75;2.00;;;;;-146.25;100.00;57879.81;5097763;27;45203;-73
2023/12/06 09:18:47;;;;;;;;;3.00;3.00;;;;;-146.25;100.00;57879.81;5098157;27;45331;-73
2023/12/06 09:21:13;;;;;;;;;2.75;2.50;;;;;-146.25;100.00;57879.81;5097115;27;46092;-79
2023/12/06 09:23:39;;;;;;;;;3.00;2.50;;;;;-146.25;100.00;57879.81;5097851;27;45530;-73
2023/12/06 09:26:05;;;;;;;;;2.50;2.00;;;;;-146.25;100.00;57879.81;5097633;27;45925;-73
2023/12/06 09:28:31;;;;;;;;;1.00;1.00;;;;;-146.25;100.00;57879.81;5097352;27;45614;-72
2023/12/06 09:30:57;;;;;;;;;1.00;1.00;;;;;-146.25;100.00;57879.81;5097330;27;45362;-73
2023/12/06 09:33:22;;;;;;;;;1.00;1.00;;;;;-146.25;100.00;57879.81;5097266;27;45450;-74
2023/12/06 09:35:48;;;;;;;;;2.33;1.33;;;;;-146.25;100.00;57879.81;5097669;27;45422;-73
2023/12/06 09:38:13;;;;;;;;;3.00;2.67;;;;;-146.25;100.00;57879.81;5097401;27;45494;-73
2023/12/06 09:40:39;;;;;;;;;4.67;4.00;;;;;-146.25;100.00;57879.81;5097091;27;45381;-73
2023/12/06 09:43:05;;;;;;;;;6.33;6.00;;;;;-146.25;100.00;57879.81;5097260;27;45299;-73
2023/12/06 09:45:31;;;;;;;;;5.33;5.33;;;;;-146.25;100.00;57879.81;5097224;27;45271;-73
2023/12/06 09:47:57;;;;;;;;;2.00;1.00;;;;;-146.25;100.00;57879.81;5097477;27;45474;-73
2023/12/06 09:50:26;;;;;;;;;1.00;1.00;;;;;-146.25;100.00;57879.81;5097129;27;46134;-73
2023/12/06 09:52:52;;;;;;;;;4.33;4.00;;;;;-146.25;100.00;57879.81;5096580;27;45307;-74
2023/12/06 09:55:25;;;;;;;;;1.00;1.00;;;;;-146.25;100.00;57879.81;5100161;27;45414;-73
2023/12/06 09:57:54;;;;;;;;;3.00;2.00;;;;;-146.25;100.00;57879.81;5101161;27;45476;-73
2023/12/06 10:00:21;;;;;;;;;0.00;0.00;;;;;-146.25;100.00;57879.81;5100499;27;45489;-73
2023/12/06 10:02:50;;;;;;;;;3.67;2.00;;;;;-146.25;100.00;57879.81;5100313;27;45359;-73
2023/12/06 10:05:16;;;;;;;;;1.00;1.00;;;;;-146.25;100.00;57879.81;5100265;27;45484;-72
2023/12/06 10:07:41;;;;;;;;;2.00;1.00;;;;;-146.25;100.00;57879.81;5100286;27;45423;-73
2023/12/06 10:10:17;;;;;;;;;1.33;1.00;;;;;-146.25;100.00;57879.81;5099953;27;46131;-73
2023/12/06 10:12:52;;;;;;;;;0.00;0.00;;;;;-146.25;100.00;57879.81;5100294;27;45410;-74
2023/12/06 10:15:18;;;;;;;;;0.00;0.00;;;;;-146.25;100.00;57879.81;5100661;27;45473;-73
2023/12/06 10:17:45;;;;;;;;;19.50;18.00;;;;;-146.25;100.00;57879.81;5081934;27;45552;-73
2023/12/06 10:20:12;;;;;;;;;41.00;34.25;;;;;-146.25;100.00;57879.81;5099952;27;46070;-73
2023/12/06 10:22:37;;;;;;;;;6.00;5.00;;;;;-146.25;100.00;57879.81;5099963;27;45527;-73
2023/12/06 10:25:06;;;;;;;;;1.00;0.00;;;;;-146.25;100.00;57879.81;5100178;27;45247;-73
2023/12/06 10:27:32;;;;;;;;;48.00;39.75;;;;;-146.25;100.00;57879.81;5100191;27;45574;-73
2023/12/06 10:29:57;;;;;;;;;39.50;33.50;;;;;-146.25;100.00;57879.81;5099443;27;46103;-73
2023/12/06 10:32:23;;;;;;;;;45.00;34.50;;;;;-146.25;100.00;57879.81;5099739;27;45327;-73
2023/12/06 10:34:50;;;;;;;;;30.75;29.25;;;;;-146.25;100.00;57879.81;5099777;27;45499;-73
2023/12/06 10:37:20;;;;;;;;;6.67;6.33;;;;;-146.25;100.00;57879.81;5100212;27;45435;-73
2023/12/06 10:39:49;;;;;;;;;14.75;14.50;;;;;-146.25;100.00;57879.81;5081390;27;46549;-73
2023/12/06 10:42:19;;;;;;;;;4.00;4.00;;;;;-146.25;100.00;57879.81;5107899;27;45406;-73
2023/12/06 10:44:45;;;;;;;;;11.00;9.00;;;;;-146.25;100.00;57879.81;5101671;27;45416;-74
2023/12/06 10:47:12;;;;;;;;;2.00;1.00;;;;;-146.25;100.00;57879.81;5120492;27;45553;-73
2023/12/06 10:49:38;;;;;;;;;9.00;8.00;;;;;-146.25;100.00;57879.81;5119966;27;45581;-73
2023/12/06 10:52:05;;;;;;;;;9.67;8.00;;;;;-146.25;100.00;57879.81;5120069;27;45265;-74
2023/12/06 10:54:30;;;;;;;;;5.67;5.00;;;;;-146.25;100.00;57879.81;5120153;27;45534;-73
2023/12/06 10:56:56;;;;;;;;;3.00;0.33;;;;;-146.25;100.00;57879.81;5120364;27;45485;-74
2023/12/06 10:59:25;;;;;;;;;5.33;4.67;;;;;-146.25;100.00;57879.81;5101481;27;46092;-74
2023/12/06 11:01:56;;;;;;;;;6.00;6.00;;;;;-146.25;100.00;57879.81;5120527;27;45444;-73